Latest Weather Observations for Kingaroy

IDQ60901

Issued at 6:45 pm EST Sunday 26 October 2014 (issued every 10 minutes, with the page automatically refreshed every 10 minutes)

About weather observations | Map of Brisbane area stations | Latest observations for Brisbane area | Other Formats
Station Details ID: 040922 Name: KINGAROY AIRPORT Lat: -26.57 Lon: 151.84 Height: 433.67 m
Data from the previous 72 hours. | See also: Recent months at Kingaroy
Date/Time
EST
Tmp

°C
App
Tmp
°C
Dew
Point
°C
Rel
Hum
%
Delta-T

°C
Wind Press
QNH
hPa
Press
MSL
hPa
Rain
since
9 am
mm
Dir
 
Spd
km/h
Gust
km/h
Spd
kts
Gust
kts
26/06:30pm 30.5 27.5 7.7 24 12.7 N 13 19 7 10 1013.2 1011.6 0.0
26/06:00pm 31.0 27.7 8.1 24 12.9 N 15 17 8 9 1012.8 1011.2 0.0
26/05:30pm 32.5 28.8 8.0 22 13.8 N 17 24 9 13 1012.6 1011.0 0.0
26/05:00pm 33.7 29.9 7.6 20 14.7 N 17 22 9 12 1012.4 1010.8 0.0
26/04:30pm 34.0 30.3 7.9 20 14.8 NNW 17 28 9 15 1012.3 1010.7 0.0
26/04:00pm 34.4 30.2 7.5 19 15.2 NNW 19 24 10 13 1012.4 1010.8 0.0
26/03:30pm 34.7 31.7 7.7 19 15.3 N 13 22 7 12 1012.6 1011.0 0.0
26/03:00pm 34.8 31.4 7.8 19 15.4 NW 15 20 8 11 1012.9 1011.3 0.0
26/02:30pm 34.5 30.3 8.3 20 15.0 NNW 20 30 11 16 1013.3 1011.7 0.0
26/02:00pm 34.1 31.3 8.7 21 14.6 NNW 13 20 7 11 1013.7 1012.2 0.0
26/01:30pm 33.7 30.5 8.3 21 14.5 NW 15 26 8 14 1014.3 1012.7 0.0
26/01:00pm 33.2 30.2 9.3 23 13.8 NW 15 24 8 13 1015.0 1013.4 0.0
26/12:30pm 32.6 29.3 9.4 24 13.4 WNW 17 26 9 14 1015.5 1013.9 0.0
26/12:00pm 32.4 29.1 11.0 27 12.6 NW 19 26 10 14 1016.0 1014.5 0.0
26/11:30am 31.6 29.2 11.4 29 12.0 N 15 22 8 12 1016.5 1014.9 0.0
26/11:00am 29.8 27.7 12.3 34 10.4 NW 15 26 8 14 1017.1 1015.5 0.0
26/10:30am 29.1 27.0 12.5 36 9.9 NNW 15 28 8 15 1017.5 1015.9 0.0
26/10:00am 27.4 26.0 13.4 42 8.4 N 13 20 7 11 1018.0 1016.5 0.0
26/09:30am 25.3 23.1 13.2 47 7.2 NW 17 24 9 13 1018.6 1017.1 0.0
26/09:00am 25.2 23.2 14.0 49 6.7 NNW 17 22 9 12 1018.9 1017.3 0.0
26/08:30am 24.3 22.6 14.7 55 5.8 NNW 17 30 9 16 1019.1 1017.5 0.0
26/08:00am 21.3 19.2 13.5 61 4.6 NNW 17 24 9 13 1019.2 1017.6 0.0
26/07:30am 21.0 19.1 14.2 65 4.0 N 17 22 9 12 1019.1 1017.5 0.0
26/07:00am 18.8 18.4 14.1 74 2.8 NNW 9 13 5 7 1018.9 1017.3 0.0
26/06:30am 16.8 17.6 12.7 77 2.3 CALM 0 0 0 0 1018.9 1017.3 0.0
26/06:00am 14.3 14.9 12.0 86 1.3 CALM 0 0 0 0 1018.8 1017.2 0.0
26/05:30am 12.6 12.7 10.0 84 1.4 CALM 0 0 0 0 1018.5 1017.0 0.0
26/05:00am 13.7 13.1 10.5 81 1.7 N 4 7 2 4 1018.1 1016.6 0.0
26/04:30am 15.2 15.1 12.0 81 1.8 ENE 4 9 2 5 1018.0 1016.5 0.0
26/04:00am 15.4 14.9 12.2 81 1.8 NE 6 9 3 5 1017.8 1016.3 0.0
26/03:30am 15.3 15.5 11.7 79 2.0 NE 2 7 1 4 1017.6 1016.0 0.0
26/03:00am 15.8 15.3 12.0 78 2.1 ENE 6 9 3 5 1017.7 1016.2 0.0
26/02:30am 15.2 14.0 11.6 79 2.0 E 9 11 5 6 1017.6 1016.0 0.0
26/02:00am 15.1 14.1 10.9 76 2.3 E 7 9 4 5 1017.8 1016.3 0.0
26/01:30am 15.2 14.0 10.4 73 2.6 E 7 9 4 5 1017.9 1016.4 0.0
26/01:00am 15.7 14.8 10.5 71 2.8 E 6 9 3 5 1018.2 1016.7 0.0
26/12:30am 16.4 16.6 10.5 68 3.2 CALM 0 0 0 0 1018.4 1016.9 0.0
26/12:00am 18.5 18.0 12.5 68 3.4 N 7 9 4 5 1018.5 1017.0 0.0
 
Date/Time
EST
Tmp

°C
App
Tmp
°C
Dew
Point
°C
Rel
Hum
%
Delta-T

°C
Wind Press
QNH
hPa
Press
MSL
hPa
Rain
since
9 am
mm
Dir
 
Spd
km/h
Gust
km/h
Spd
kts
Gust
kts
25/11:30pm 18.4 17.9 11.9 66 3.7 NNE 6 7 3 4 1018.6 1017.1 0.0
25/11:00pm 19.7 18.8 12.7 64 4.0 N 9 15 5 8 1018.8 1017.2 0.0
25/10:30pm 20.3 19.5 12.8 62 4.3 NNE 9 13 5 7 1018.8 1017.2 0.0
25/10:00pm 21.7 21.0 12.0 54 5.5 NE 7 13 4 7 1018.6 1017.1 0.0
25/09:30pm 22.3 21.9 12.3 53 5.8 N 6 7 3 4 1018.3 1016.8 0.0
25/09:00pm 23.1 22.4 11.5 48 6.6 NNE 6 13 3 7 1018.3 1016.8 0.0
25/08:30pm 24.4 23.2 12.7 48 6.9 N 11 17 6 9 1018.0 1016.5 0.0
25/08:00pm 25.3 23.8 11.8 43 7.8 NNE 11 17 6 9 1017.7 1016.2 0.0
25/07:30pm 27.1 24.8 10.3 35 9.6 N 13 20 7 11 1017.4 1015.8 0.0
25/07:00pm 26.9 25.2 9.7 34 9.7 N 9 13 5 7 1017.1 1015.5 0.0
25/06:30pm 28.1 26.1 10.3 33 10.2 N 11 17 6 9 1016.7 1015.1 0.0
25/06:00pm 29.0 26.3 10.2 31 10.8 N 15 20 8 11 1016.4 1014.8 0.0
25/05:30pm 30.3 27.2 10.3 29 11.6 N 17 20 9 11 1016.0 1014.5 0.0
25/05:00pm 31.5 29.3 10.8 28 12.1 NW 13 19 7 10 1016.0 1014.5 0.0
25/04:30pm 31.0 29.5 10.4 28 12.0 NW 9 17 5 9 1015.9 1014.4 0.0
25/04:00pm 31.8 30.3 10.5 27 12.5 WSW 9 20 5 11 1016.0 1014.5 0.0
25/03:30pm 30.7 27.0 10.1 28 11.9 WNW 20 30 11 16 1016.4 1014.8 0.0
25/03:00pm 31.7 28.1 10.4 27 12.4 NNW 20 30 11 16 1016.5 1014.9 0.0
25/02:30pm 31.5 28.5 10.8 28 12.2 NNW 17 26 9 14 1016.9 1015.3 0.0
25/02:00pm 30.3 28.0 10.3 29 11.6 NW 13 26 7 14 1017.4 1015.8 0.0
25/01:30pm 30.4 28.6 10.9 30 11.4 NW 11 15 6 8 1017.9 1016.4 0.0
25/01:00pm 30.1 28.1 11.6 32 10.9 NW 13 20 7 11 1018.5 1017.0 0.0
25/12:30pm 29.7 26.6 11.7 33 10.6 NNW 19 26 10 14 1019.0 1017.4 0.0
25/12:00pm 28.3 25.8 12.2 37 9.5 N 17 26 9 14 1019.5 1017.9 0.0
25/11:30am 27.0 24.5 11.1 37 9.2 NNW 15 24 8 13 1020.1 1018.6 0.0
25/11:00am 27.3 25.4 12.9 41 8.6 N 15 20 8 11 1020.5 1019.0 0.0
25/10:30am 24.8 21.7 12.1 45 7.4 NNW 20 26 11 14 1021.1 1019.6 0.0
25/10:00am 24.1 22.1 12.7 49 6.7 N 15 24 8 13 1021.8 1020.3 0.0
25/09:30am 23.0 21.1 12.9 53 5.9 NNW 15 22 8 12 1022.2 1020.7 0.0
25/09:00am 21.5 18.7 12.6 57 5.1 NNW 19 30 10 16 1022.5 1021.0 0.0
25/08:30am 20.4 17.0 12.6 61 4.5 NNW 22 28 12 15 1022.5 1021.0 0.0
25/08:00am 19.4 16.6 12.7 65 3.8 NW 19 22 10 12 1022.8 1021.3 0.0
25/07:30am 18.2 16.2 12.6 70 3.2 NW 15 22 8 12 1022.9 1021.4 0.0
25/07:00am 16.5 15.6 12.7 78 2.1 NNW 9 15 5 8 1022.7 1021.2 0.0
25/06:30am 14.6 15.1 11.6 82 1.6 CALM 0 0 0 0 1022.5 1021.0 0.0
25/06:00am 12.8 13.2 11.2 90 0.9 CALM 0 0 0 0 1022.4 1020.9 0.0
25/05:30am 12.0 11.5 10.6 91 0.7 SE 4 6 2 3 1021.9 1020.4 0.0
25/05:00am 11.6 11.6 9.9 89 0.9 CALM 0 0 0 0 1021.6 1020.0 0.0
25/04:30am 12.1 12.1 9.8 86 1.2 CALM 0 0 0 0 1021.1 1019.6 0.0
25/04:00am 13.1 13.5 11.2 88 1.0 CALM 0 0 0 0 1020.9 1019.4 0.0
25/03:30am 13.4 13.2 10.4 82 1.6 NNW 2 6 1 3 1020.6 1019.1 0.0
25/03:00am 13.7 14.0 10.9 83 1.5 CALM 0 0 0 0 1020.4 1018.9 0.0
25/02:30am 14.9 13.8 12.0 83 1.6 N 9 17 5 9 1020.1 1018.6 0.0
25/02:00am 14.5 13.4 11.8 84 1.5 N 9 11 5 6 1020.3 1018.8 0.0
25/01:30am 14.3 14.7 11.3 82 1.6 CALM 0 0 0 0 1020.7 1019.2 0.0
25/01:00am 14.9 15.0 11.5 80 1.9 NNW 2 6 1 3 1021.1 1019.6 0.0
25/12:30am 15.4 14.8 11.8 79 2.0 NNE 6 11 3 6 1021.4 1019.8 0.0
25/12:00am 15.5 14.9 11.7 78 2.1 NE 6 11 3 6 1021.9 1020.4 0.0
 
Date/Time
EST
Tmp

°C
App
Tmp
°C
Dew
Point
°C
Rel
Hum
%
Delta-T

°C
Wind Press
QNH
hPa
Press
MSL
hPa
Rain
since
9 am
mm
Dir
 
Spd
km/h
Gust
km/h
Spd
kts
Gust
kts
24/11:30pm 15.7 15.0 11.5 76 2.3 NE 6 7 3 4 1022.4 1020.9 0.0
24/11:00pm 16.2 15.5 12.0 76 2.3 E 7 9 4 5 1022.9 1021.4 0.0
24/10:30pm 16.9 16.2 12.0 73 2.7 NNE 7 11 4 6 1022.9 1021.4 0.0
24/10:00pm 17.3 16.2 12.0 71 3.0 NE 9 15 5 8 1023.0 1021.5 0.0
24/09:30pm 18.1 16.3 12.1 68 3.4 NNE 13 22 7 12 1023.1 1021.6 0.0
24/09:00pm 18.9 17.2 12.6 67 3.6 NNE 13 24 7 13 1023.0 1021.5 0.0
24/08:30pm 19.3 18.5 12.8 66 3.7 NNE 9 17 5 9 1022.8 1021.3 0.0
24/08:00pm 20.1 18.5 12.8 63 4.2 NNE 13 22 7 12 1022.5 1021.0 0.0
24/07:30pm 21.2 19.7 13.1 60 4.7 NNE 13 24 7 13 1021.9 1020.4 0.0
24/07:00pm 22.1 20.9 12.9 56 5.3 NE 11 22 6 12 1021.0 1019.5 0.0
24/06:30pm 23.3 21.6 12.6 51 6.2 ENE 13 26 7 14 1020.6 1019.1 0.0
24/06:00pm 24.8 23.0 12.1 45 7.4 ENE 13 22 7 12 1020.1 1018.6 0.0
24/05:30pm 26.5 23.5 10.6 37 9.1 NE 17 26 9 14 1019.4 1017.8 0.0
24/05:00pm 28.3 24.6 8.1 28 11.2 E 17 26 9 14 1019.2 1017.6 0.0
24/04:30pm 29.0 25.2 7.6 26 11.8 E 17 26 9 14 1018.9 1017.3 0.0
24/04:00pm 29.0 26.0 7.6 26 11.8 ENE 13 20 7 11 1018.6 1017.1 0.0
24/03:30pm 29.5 25.9 8.5 27 11.8 E 17 26 9 14 1018.6 1017.1 0.0
24/03:00pm 29.8 28.2 8.8 27 11.8 SE 7 32 4 17 1018.6 1017.1 0.0
24/02:30pm 30.1 27.4 9.1 27 11.9 E 13 20 7 11 1019.1 1017.5 0.0
24/02:00pm 29.7 27.5 9.3 28 11.6 ESE 11 20 6 11 1019.5 1017.9 0.0
24/01:30pm 28.8 25.6 8.5 28 11.3 ESE 15 24 8 13 1020.0 1018.5 0.0
24/01:00pm 28.9 25.2 9.6 30 11.0 E 19 28 10 15 1020.4 1018.9 0.0
24/12:30pm 29.0 26.9 11.1 33 10.4 SSE 13 24 7 13 1020.9 1019.4 0.0
24/12:00pm 26.6 24.9 9.9 35 9.4 E 9 17 5 9 1021.6 1020.0 0.0
24/11:30am 26.0 24.7 9.8 36 9.1 S 7 13 4 7 1022.0 1020.5 0.0
24/11:00am 25.8 24.6 11.6 41 8.2 SSE 9 15 5 8 1022.4 1020.9 0.0
24/10:30am 25.3 24.3 12.2 44 7.7 NE 9 17 5 9 1022.9 1021.4 0.0
24/10:00am 22.8 21.2 11.5 49 6.4 NW 11 15 6 8 1023.3 1021.8 0.0
24/09:30am 22.0 20.5 12.0 53 5.7 NW 11 15 6 8 1023.8 1022.2 0.0
24/09:00am 21.1 20.3 11.7 55 5.3 N 7 15 4 8 1024.0 1022.5 0.0
24/08:30am 19.9 18.6 11.1 57 4.9 N 9 15 5 8 1024.2 1022.7 0.0
24/08:00am 18.7 17.3 12.2 66 3.7 NNW 11 19 6 10 1024.2 1022.7 0.0
24/07:30am 17.6 16.5 12.1 70 3.1 N 9 15 5 8 1023.9 1022.4 0.0
24/07:00am 16.5 16.8 12.1 75 2.5 W 2 9 1 5 1023.7 1022.1 0.0
24/06:30am 14.8 14.2 11.8 82 1.7 S 6 7 3 4 1023.3 1021.8 0.0
24/06:00am 12.2 12.3 10.3 88 1.0 CALM 0 0 0 0 1022.7 1021.2 0.0
24/05:30am 11.0 10.5 9.3 89 0.9 SE 2 7 1 4 1022.5 1021.0 0.0
24/05:00am 10.8 10.0 8.2 84 1.3 E 2 7 1 4 1022.2 1020.7 0.0
24/04:30am 11.6 11.1 9.5 87 1.1 SE 2 7 1 4 1021.9 1020.4 0.0
24/04:00am 11.2 9.8 9.6 90 0.8 S 7 9 4 5 1022.0 1020.5 0.0
24/03:30am 12.6 12.7 10.3 86 1.2 CALM 0 6 0 3 1021.6 1020.0 0.0
24/03:00am 13.0 12.0 10.2 83 1.5 ENE 6 7 3 4 1021.5 1019.9 0.0
24/02:30am 13.6 13.5 10.9 84 1.5 NE 2 7 1 4 1021.6 1020.0 0.0
24/02:00am 13.9 12.8 10.1 78 2.0 E 6 7 3 4 1021.8 1020.3 0.0
24/01:30am 14.5 13.7 10.9 79 1.9 NE 6 11 3 6 1021.7 1020.1 0.0
24/01:00am 14.6 13.5 10.6 77 2.1 ENE 7 9 4 5 1021.9 1020.4 0.0
24/12:30am 14.1 12.8 9.1 72 2.6 NE 6 7 3 4 1022.2 1020.7 0.0
24/12:00am 15.1 13.9 9.5 69 2.9 NNE 6 9 3 5 1022.7 1021.2 0.0
 
Date/Time
EST
Tmp

°C
App
Tmp
°C
Dew
Point
°C
Rel
Hum
%
Delta-T

°C
Wind Press
QNH
hPa
Press
MSL
hPa
Rain
since
9 am
mm
Dir
 
Spd
km/h
Gust
km/h
Spd
kts
Gust
kts
23/11:30pm 15.9 14.6 10.0 68 3.2 E 7 11 4 6 1022.7 1021.2 0.0
23/11:00pm 16.3 15.1 10.2 67 3.3 NNE 7 13 4 7 1022.9 1021.4 0.0
23/10:30pm 16.9 16.7 10.3 65 3.6 ENE 2 7 1 4 1022.7 1021.2 0.0
23/10:00pm 17.9 16.9 11.0 64 3.8 E 7 13 4 7 1022.6 1021.1 0.0
23/09:30pm 19.0 17.3 11.3 61 4.3 NNE 11 17 6 9 1022.2 1020.7 0.0
23/09:00pm 19.1 18.1 10.9 59 4.5 NE 7 13 4 7 1021.8 1020.3 0.0
23/08:30pm 20.1 19.3 11.1 56 5.0 NNE 6 11 3 6 1021.3 1019.7 0.0
23/08:00pm 21.2 20.4 11.0 52 5.7 ENE 6 11 3 6 1020.7 1019.2 0.0
23/07:30pm 22.1 20.5 10.3 47 6.6 NE 9 13 5 7 1020.1 1018.6 0.0
23/07:00pm 22.5 20.2 7.5 38 7.9 ENE 9 15 5 8 1019.6 1018.0 0.0

Latest Capital City Observations: Canberra | Sydney | Melbourne | Brisbane | Adelaide | Perth | Hobart | Darwin

Other Formats:

Comma delimited format used in spreadsheet applications
http://www.bom.gov.au/fwo/IDQ60901/IDQ60901.94549.axf

JavaScript Object Notation format (JSON) in row-major order
http://www.bom.gov.au/fwo/IDQ60901/IDQ60901.94549.json